DLH1LT KLAX-KSAN
Flight info
| Callsign | DLH1LT |
|---|---|
| Flight time | 0h 27m |
| Altitude | 13000 |
| Route | LAXX1 MZB |
| Aircraft | A359/H-SDE2E3GHIJ3J4J5LM1ORWXY/LB1D1 |
Departure
| Time | 2026-04-25 17:35 |
|---|---|
| Airport | Los Angeles International Airport (KLAX) |
Arrival
| Time | 2026-04-25 18:02 |
|---|---|
| Airport | San Diego International Airport (KSAN) |
| Time | Latitude | Longitude | Altitude | Speed | Heading |
|---|---|---|---|---|---|
| 2026-04-25 17:20 | 33.94023 | -118.40924 | 99 ft | 0 kts | 264° |
| 2026-04-25 17:25 | 33.94023 | -118.40919 | 101 ft | 3 kts | 264° |
| 2026-04-25 17:26 | 33.94025 | -118.40904 | 98 ft | 3 kts | 264° |
| 2026-04-25 17:26 | 33.94027 | -118.40874 | 101 ft | 3 kts | 251° |
| 2026-04-25 17:26 | 33.94033 | -118.40858 | 98 ft | 3 kts | 222° |
| 2026-04-25 17:26 | 33.94050 | -118.40846 | 100 ft | 3 kts | 201° |
| 2026-04-25 17:27 | 33.94067 | -118.40838 | 98 ft | 3 kts | 189° |
| 2026-04-25 17:27 | 33.94077 | -118.40836 | 99 ft | 0 kts | 167° |
| 2026-04-25 17:29 | 33.94063 | -118.40833 | 99 ft | 6 kts | 169° |
| 2026-04-25 17:29 | 33.94006 | -118.40822 | 100 ft | 10 kts | 173° |
| 2026-04-25 17:29 | 33.93924 | -118.40809 | 101 ft | 14 kts | 167° |
| 2026-04-25 17:29 | 33.93843 | -118.40742 | 102 ft | 15 kts | 150° |
| 2026-04-25 17:30 | 33.93813 | -118.40631 | 102 ft | 16 kts | 83° |
| 2026-04-25 17:30 | 33.93828 | -118.40485 | 102 ft | 19 kts | 83° |
| 2026-04-25 17:30 | 33.93845 | -118.40317 | 102 ft | 22 kts | 83° |
| 2026-04-25 17:30 | 33.93866 | -118.40127 | 105 ft | 24 kts | 83° |
| 2026-04-25 17:31 | 33.93887 | -118.39918 | 103 ft | 27 kts | 83° |
| 2026-04-25 17:31 | 33.93909 | -118.39683 | 102 ft | 30 kts | 83° |
| 2026-04-25 17:31 | 33.93936 | -118.39437 | 102 ft | 20 kts | 83° |
| 2026-04-25 17:31 | 33.93954 | -118.39268 | 103 ft | 22 kts | 83° |
| 2026-04-25 17:32 | 33.93974 | -118.39073 | 102 ft | 25 kts | 83° |
| 2026-04-25 17:32 | 33.93995 | -118.38858 | 100 ft | 25 kts | 83° |
| 2026-04-25 17:32 | 33.94018 | -118.38640 | 103 ft | 27 kts | 83° |
| 2026-04-25 17:32 | 33.94037 | -118.38448 | 104 ft | 16 kts | 83° |
| 2026-04-25 17:33 | 33.94052 | -118.38300 | 105 ft | 18 kts | 83° |
| 2026-04-25 17:33 | 33.94067 | -118.38156 | 100 ft | 17 kts | 83° |
| 2026-04-25 17:33 | 33.94077 | -118.38059 | 100 ft | 0 kts | 83° |
| 2026-04-25 17:33 | 33.94077 | -118.38047 | 99 ft | 5 kts | 91° |
| 2026-04-25 17:34 | 33.94052 | -118.38006 | 100 ft | 7 kts | 155° |
| 2026-04-25 17:34 | 33.93995 | -118.38006 | 101 ft | 9 kts | 206° |
| 2026-04-25 17:34 | 33.93979 | -118.38055 | 102 ft | 5 kts | 263° |
| 2026-04-25 17:34 | 33.93974 | -118.38106 | 100 ft | 8 kts | 263° |
| 2026-04-25 17:35 | 33.93946 | -118.38402 | 105 ft | 75 kts | 263° |
| 2026-04-25 17:35 | 33.93850 | -118.39342 | 102 ft | 148 kts | 263° |
| 2026-04-25 17:35 | 33.93697 | -118.40736 | 485 ft | 180 kts | 263° |
| 2026-04-25 17:35 | 33.93532 | -118.42256 | 1414 ft | 183 kts | 262° |
| 2026-04-25 17:36 | 33.93315 | -118.43794 | 2299 ft | 194 kts | 257° |
| 2026-04-25 17:36 | 33.92611 | -118.45157 | 3244 ft | 185 kts | 218° |
| 2026-04-25 17:36 | 33.91586 | -118.45684 | 4224 ft | 142 kts | 199° |
| 2026-04-25 17:36 | 33.90515 | -118.46042 | 4429 ft | 188 kts | 198° |
| 2026-04-25 17:37 | 33.89080 | -118.46514 | 4838 ft | 230 kts | 197° |
| 2026-04-25 17:37 | 33.87450 | -118.46970 | 5145 ft | 252 kts | 192° |
| 2026-04-25 17:37 | 33.85674 | -118.47355 | 5641 ft | 264 kts | 191° |
| 2026-04-25 17:37 | 33.83870 | -118.47731 | 6326 ft | 268 kts | 191° |
| 2026-04-25 17:38 | 33.82015 | -118.48112 | 7033 ft | 272 kts | 191° |
| 2026-04-25 17:38 | 33.80729 | -118.48227 | 7499 ft | 276 kts | 180° |
| 2026-04-25 17:38 | 33.78263 | -118.47461 | 8436 ft | 283 kts | 151° |
| 2026-04-25 17:38 | 33.76845 | -118.45809 | 9135 ft | 289 kts | 123° |
| 2026-04-25 17:39 | 33.76137 | -118.43551 | 9811 ft | 293 kts | 96° |
| 2026-04-25 17:39 | 33.76022 | -118.41081 | 10391 ft | 302 kts | 92° |
| 2026-04-25 17:39 | 33.75765 | -118.38499 | 10657 ft | 320 kts | 104° |
| 2026-04-25 17:39 | 33.74932 | -118.35944 | 10917 ft | 337 kts | 117° |
| 2026-04-25 17:40 | 33.73819 | -118.33395 | 11174 ft | 352 kts | 119° |
| 2026-04-25 17:40 | 33.72618 | -118.30784 | 11599 ft | 360 kts | 120° |
| 2026-04-25 17:40 | 33.71392 | -118.28146 | 12191 ft | 363 kts | 120° |
| 2026-04-25 17:40 | 33.70152 | -118.25486 | 12712 ft | 366 kts | 120° |
| 2026-04-25 17:41 | 33.68904 | -118.22810 | 12971 ft | 370 kts | 120° |
| 2026-04-25 17:41 | 33.67602 | -118.20024 | 12992 ft | 393 kts | 120° |
| 2026-04-25 17:41 | 33.66262 | -118.17159 | 12993 ft | 401 kts | 120° |
| 2026-04-25 17:41 | 33.64887 | -118.14218 | 12998 ft | 403 kts | 120° |
| 2026-04-25 17:42 | 33.63515 | -118.11289 | 13000 ft | 403 kts | 120° |
| 2026-04-25 17:42 | 33.62527 | -118.09182 | 13003 ft | 403 kts | 120° |
| 2026-04-25 17:42 | 33.61476 | -118.06941 | 12999 ft | 403 kts | 120° |
| 2026-04-25 17:42 | 33.60098 | -118.04004 | 13001 ft | 403 kts | 120° |
| 2026-04-25 17:43 | 33.58722 | -118.01076 | 12997 ft | 403 kts | 120° |
| 2026-04-25 17:43 | 33.57347 | -117.98150 | 13001 ft | 403 kts | 120° |
| 2026-04-25 17:43 | 33.55964 | -117.95228 | 12998 ft | 403 kts | 121° |
| 2026-04-25 17:43 | 33.54320 | -117.92519 | 13004 ft | 402 kts | 133° |
| 2026-04-25 17:44 | 33.53813 | -117.91867 | 13005 ft | 402 kts | 135° |
| 2026-04-25 17:44 | 33.53453 | -117.91424 | 13004 ft | 401 kts | 135° |
| 2026-04-25 17:44 | 33.51454 | -117.89085 | 13000 ft | 401 kts | 137° |
| 2026-04-25 17:44 | 33.49436 | -117.86766 | 13000 ft | 401 kts | 137° |
| 2026-04-25 17:45 | 33.47425 | -117.84451 | 13000 ft | 401 kts | 137° |
| 2026-04-25 17:45 | 33.46094 | -117.82916 | 13001 ft | 401 kts | 137° |
| 2026-04-25 17:45 | 33.43399 | -117.79809 | 12999 ft | 401 kts | 137° |
| 2026-04-25 17:45 | 33.41333 | -117.77568 | 13001 ft | 401 kts | 139° |
| 2026-04-25 17:46 | 33.39239 | -117.75360 | 12997 ft | 401 kts | 139° |
| 2026-04-25 17:46 | 33.37146 | -117.73150 | 13000 ft | 401 kts | 139° |
| 2026-04-25 17:46 | 33.35053 | -117.70930 | 12999 ft | 401 kts | 139° |
| 2026-04-25 17:46 | 33.32994 | -117.68741 | 13001 ft | 401 kts | 139° |
| 2026-04-25 17:47 | 33.30910 | -117.66523 | 13000 ft | 401 kts | 139° |
| 2026-04-25 17:47 | 33.28825 | -117.64304 | 13000 ft | 401 kts | 139° |
| 2026-04-25 17:47 | 33.26742 | -117.62086 | 13000 ft | 401 kts | 139° |
| 2026-04-25 17:47 | 33.24657 | -117.59868 | 12998 ft | 401 kts | 139° |
| 2026-04-25 17:48 | 33.20481 | -117.55466 | 12800 ft | 396 kts | 139° |
| 2026-04-25 17:48 | 33.18422 | -117.53301 | 12554 ft | 393 kts | 139° |
| 2026-04-25 17:48 | 33.16371 | -117.51147 | 12301 ft | 392 kts | 139° |
| 2026-04-25 17:49 | 33.14318 | -117.49006 | 12053 ft | 391 kts | 141° |
| 2026-04-25 17:49 | 33.12159 | -117.47046 | 11708 ft | 387 kts | 145° |
| 2026-04-25 17:49 | 33.10004 | -117.45238 | 11222 ft | 378 kts | 146° |
| 2026-04-25 17:49 | 33.07902 | -117.43495 | 11094 ft | 358 kts | 146° |
| 2026-04-25 17:50 | 33.05905 | -117.41839 | 10979 ft | 340 kts | 146° |
| 2026-04-25 17:50 | 33.04007 | -117.40264 | 10879 ft | 323 kts | 146° |
| 2026-04-25 17:50 | 33.02210 | -117.38760 | 10766 ft | 307 kts | 146° |
| 2026-04-25 17:50 | 33.00500 | -117.37322 | 10640 ft | 294 kts | 146° |
| 2026-04-25 17:51 | 32.98886 | -117.35966 | 10523 ft | 281 kts | 146° |
| 2026-04-25 17:51 | 32.97320 | -117.34652 | 10390 ft | 270 kts | 146° |
| 2026-04-25 17:51 | 32.95808 | -117.33384 | 10263 ft | 262 kts | 146° |
| 2026-04-25 17:51 | 32.94338 | -117.32152 | 10113 ft | 255 kts | 146° |
| 2026-04-25 17:52 | 32.92884 | -117.30937 | 9828 ft | 258 kts | 146° |
| 2026-04-25 17:52 | 32.92384 | -117.30519 | 9746 ft | 263 kts | 146° |
| 2026-04-25 17:52 | 32.89840 | -117.28407 | 9271 ft | 269 kts | 146° |
| 2026-04-25 17:52 | 32.88307 | -117.27131 | 8967 ft | 267 kts | 146° |
| 2026-04-25 17:53 | 32.86807 | -117.25882 | 8679 ft | 266 kts | 146° |
| 2026-04-25 17:53 | 32.85290 | -117.24621 | 8398 ft | 265 kts | 146° |
| 2026-04-25 17:53 | 32.83781 | -117.23367 | 8110 ft | 264 kts | 146° |
| 2026-04-25 17:53 | 32.82290 | -117.22096 | 7816 ft | 264 kts | 142° |
| 2026-04-25 17:54 | 32.81106 | -117.20432 | 7538 ft | 264 kts | 117° |
| 2026-04-25 17:54 | 32.80489 | -117.18378 | 7260 ft | 264 kts | 105° |
| 2026-04-25 17:54 | 32.80040 | -117.16313 | 7055 ft | 256 kts | 104° |
| 2026-04-25 17:54 | 32.79613 | -117.14303 | 6943 ft | 246 kts | 104° |
| 2026-04-25 17:55 | 32.79194 | -117.12363 | 6749 ft | 240 kts | 105° |
| 2026-04-25 17:55 | 32.78774 | -117.10446 | 6502 ft | 239 kts | 105° |
| 2026-04-25 17:55 | 32.78351 | -117.08535 | 6256 ft | 239 kts | 105° |
| 2026-04-25 17:55 | 32.77928 | -117.06636 | 6010 ft | 237 kts | 105° |
| 2026-04-25 17:56 | 32.77492 | -117.04743 | 5819 ft | 238 kts | 106° |
| 2026-04-25 17:56 | 32.77031 | -117.02862 | 5627 ft | 236 kts | 107° |
| 2026-04-25 17:56 | 32.76569 | -117.00986 | 5409 ft | 236 kts | 107° |
| 2026-04-25 17:56 | 32.76108 | -116.99121 | 5259 ft | 235 kts | 107° |
| 2026-04-25 17:57 | 32.75454 | -116.97346 | 5133 ft | 234 kts | 125° |
| 2026-04-25 17:57 | 32.74316 | -116.96037 | 4877 ft | 227 kts | 150° |
| 2026-04-25 17:57 | 32.72853 | -116.95449 | 4572 ft | 222 kts | 176° |
| 2026-04-25 17:57 | 32.72355 | -116.95424 | 4464 ft | 220 kts | 184° |
| 2026-04-25 17:58 | 32.70074 | -116.96491 | 3980 ft | 212 kts | 223° |
| 2026-04-25 17:58 | 32.69193 | -116.97862 | 3749 ft | 207 kts | 245° |
| 2026-04-25 17:58 | 32.68834 | -116.99466 | 3659 ft | 197 kts | 266° |
| 2026-04-25 17:58 | 32.68966 | -117.01041 | 3472 ft | 188 kts | 283° |
| 2026-04-25 17:59 | 32.69314 | -117.02536 | 3159 ft | 189 kts | 286° |
| 2026-04-25 17:59 | 32.69695 | -117.04030 | 2844 ft | 189 kts | 286° |
| 2026-04-25 17:59 | 32.70068 | -117.05503 | 2562 ft | 182 kts | 285° |
| 2026-04-25 17:59 | 32.70419 | -117.06916 | 2299 ft | 173 kts | 285° |
| 2026-04-25 18:00 | 32.70638 | -117.07807 | 2111 ft | 166 kts | 285° |
| 2026-04-25 18:00 | 32.71062 | -117.09510 | 1790 ft | 157 kts | 285° |
| 2026-04-25 18:00 | 32.71358 | -117.10729 | 1531 ft | 149 kts | 285° |
| 2026-04-25 18:00 | 32.71633 | -117.11863 | 1328 ft | 141 kts | 285° |
| 2026-04-25 18:01 | 32.71898 | -117.12956 | 1103 ft | 135 kts | 285° |
| 2026-04-25 18:01 | 32.72151 | -117.13996 | 905 ft | 127 kts | 285° |
| 2026-04-25 18:01 | 32.72392 | -117.14977 | 728 ft | 124 kts | 285° |
| 2026-04-25 18:01 | 32.72631 | -117.15964 | 502 ft | 125 kts | 284° |
| 2026-04-25 18:02 | 32.72862 | -117.16965 | 238 ft | 126 kts | 285° |
| 2026-04-25 18:02 | 32.73111 | -117.17956 | 65 ft | 124 kts | 286° |
| 2026-04-25 18:02 | 32.73348 | -117.18926 | 29 ft | 115 kts | 286° |
| 2026-04-25 18:02 | 32.73477 | -117.19468 | 29 ft | 47 kts | 287° |
| 2026-04-25 18:03 | 32.73534 | -117.19706 | 33 ft | 13 kts | 276° |
| 2026-04-25 18:03 | 32.73515 | -117.19817 | 32 ft | 15 kts | 250° |